Time;durP1;ratioP1;P1;durP2;ratioP2;P2;SDS_P1;SDS_P2;PMS_P1;PMS_P2;Temp;Humidity;BMP_temperature;BMP_pressure;BME280_temperature;BME280_humidity;BME280_pressure;Samples;Min_cycle;Max_cycle;Signal;HPM_P1;HPM_P2
2024/02/18 00:01:19;;;;;;;104.80;36.60;;;;;;;7.07;69.87;100755.63;108121;1257;71065;-66
2024/02/18 00:03:47;;;;;;;99.00;33.60;;;;;;;7.23;69.33;100751.92;108115;1254;69419;-67
2024/02/18 00:06:15;;;;;;;114.20;37.10;;;;;;;7.60;68.15;100752.28;108081;1254;72476;-66
2024/02/18 00:08:42;;;;;;;106.50;36.90;;;;;;;7.53;68.35;100754.48;108074;1254;59716;-67
2024/02/18 00:11:10;;;;;;;107.90;35.80;;;;;;;7.61;67.90;100753.84;108110;1254;59147;-66
2024/02/18 00:13:38;;;;;;;97.70;34.70;;;;;;;7.70;67.74;100754.77;108130;1254;71997;-68
2024/02/18 00:16:06;;;;;;;110.90;36.00;;;;;;;7.74;67.61;100756.96;108105;1257;69834;-67
2024/02/18 00:18:33;;;;;;;96.20;35.50;;;;;;;7.66;67.82;100760.58;108110;1254;71358;-67
2024/02/18 00:21:01;;;;;;;105.30;35.10;;;;;;;7.61;68.03;100757.67;108136;1254;60813;-67
2024/02/18 00:23:28;;;;;;;116.40;37.40;;;;;;;7.74;67.54;100757.49;108116;1254;59273;-66
2024/02/18 00:25:56;;;;;;;99.80;36.00;;;;;;;7.70;67.76;100756.50;108093;1254;71918;-66
2024/02/18 00:28:23;;;;;;;101.40;36.70;;;;;;;7.69;67.66;100752.50;108091;1254;70182;-66
2024/02/18 00:30:51;;;;;;;90.10;33.80;;;;;;;7.44;68.51;100752.52;108124;1254;72811;-67
2024/02/18 00:33:19;;;;;;;91.20;33.50;;;;;;;7.37;68.92;100751.57;107917;1257;60036;-67
2024/02/18 00:35:47;;;;;;;113.40;36.90;;;;;;;7.43;68.73;100745.70;107945;1256;59637;-67
2024/02/18 00:38:14;;;;;;;106.10;37.50;;;;;;;7.50;68.75;100754.17;107948;1256;71834;-67
2024/02/18 00:40:43;;;;;;;104.20;36.60;;;;;;;7.39;69.12;100753.10;107926;1256;68165;-67
2024/02/18 00:43:10;;;;;;;106.70;35.20;;;;;;;7.50;68.76;100750.16;108007;1256;71429;-67
2024/02/18 00:45:38;;;;;;;94.70;35.50;;;;;;;7.54;68.72;100754.13;108080;1256;60997;-67
2024/02/18 00:48:06;;;;;;;110.40;39.00;;;;;;;7.69;68.25;100754.60;108001;1257;59561;-66
2024/02/18 00:50:34;;;;;;;105.90;35.80;;;;;;;7.74;67.94;100750.66;108001;1257;71796;-66
2024/02/18 00:53:01;;;;;;;109.40;37.50;;;;;;;7.63;68.31;100751.02;107965;1256;68081;-67
2024/02/18 00:55:29;;;;;;;118.60;39.90;;;;;;;7.65;68.27;100750.28;107952;1256;72880;-67
2024/02/18 00:57:57;;;;;;;103.50;35.20;;;;;;;7.61;68.48;100747.02;107984;1256;59746;-65
2024/02/18 01:00:24;;;;;;;109.80;40.20;;;;;;;7.51;68.87;100752.23;108003;1256;59409;-68
2024/02/18 01:02:52;;;;;;;102.50;36.70;;;;;;;7.56;68.89;100752.52;107924;1256;72949;-66
2024/02/18 01:05:20;;;;;;;99.80;35.30;;;;;;;7.47;69.33;100747.41;107969;1256;69966;-67
2024/02/18 01:07:48;;;;;;;110.80;38.90;;;;;;;7.69;68.48;100743.60;107896;1256;71932;-67
2024/02/18 01:10:15;;;;;;;93.50;33.90;;;;;;;7.62;68.80;100748.07;107911;1257;60897;-66
2024/02/18 01:12:43;;;;;;;108.80;39.40;;;;;;;7.56;68.96;100742.90;107866;1257;59770;-65
2024/02/18 01:15:10;;;;;;;113.00;39.60;;;;;;;7.62;68.91;100742.98;107912;1256;72045;-66
2024/02/18 01:17:38;;;;;;;107.60;38.70;;;;;;;7.59;69.12;100740.95;107894;1257;70418;-66
2024/02/18 01:20:07;;;;;;;113.10;39.10;;;;;;;7.62;69.04;100743.69;107953;1256;71235;-67
2024/02/18 01:22:35;;;;;;;98.40;36.90;;;;;;;7.60;69.29;100743.55;107857;1256;60920;-66
2024/02/18 01:25:03;;;;;;;100.90;36.20;;;;;;;7.63;69.11;100740.35;107983;1256;60094;-67
2024/02/18 01:27:30;;;;;;;112.70;40.30;;;;;;;7.59;69.36;100736.58;107976;1256;72065;-67
2024/02/18 01:29:58;;;;;;;96.10;35.00;;;;;;;7.53;69.74;100735.62;107900;1257;70026;-66
2024/02/18 01:32:25;;;;;;;118.70;40.40;;;;;;;7.60;69.38;100730.96;107983;1257;71434;-66
2024/02/18 01:34:54;;;;;;;109.20;37.30;;;;;;;7.64;69.45;100732.31;108046;1256;60768;-64
2024/02/18 01:37:22;;;;;;;110.90;35.30;;;;;;;7.68;69.30;100724.89;108044;1254;60221;-66
2024/02/18 01:39:50;;;;;;;108.70;40.70;;;;;;;7.80;68.90;100724.01;108084;1254;71561;-67
2024/02/18 01:42:18;;;;;;;96.00;37.00;;;;;;;7.89;68.63;100722.81;108059;1254;70906;-67
2024/02/18 01:44:45;;;;;;;102.30;38.00;;;;;;;7.89;68.69;100721.77;108089;1254;72643;-67
2024/02/18 01:47:16;;;;;;;112.00;39.40;;;;;;;7.95;68.60;100720.98;108036;1256;59637;-65
2024/02/18 01:49:43;;;;;;;94.40;33.70;;;;;;;7.83;68.97;100719.42;108013;1255;59615;-66
2024/02/18 01:52:11;;;;;;;102.50;38.20;;;;;;;7.84;68.98;100719.58;108099;1254;71752;-67
2024/02/18 01:54:39;;;;;;;109.00;39.20;;;;;;;7.96;68.78;100721.84;107982;1254;70457;-66
2024/02/18 01:57:07;;;;;;;92.60;35.80;;;;;;;8.03;68.46;100719.96;107989;1254;73224;-68
2024/02/18 01:59:34;;;;;;;117.90;38.70;;;;;;;8.05;68.51;100722.19;107971;1260;59602;-64
2024/02/18 02:02:02;;;;;;;100.80;35.90;;;;;;;8.03;68.73;100726.61;108022;1254;60020;-67
2024/02/18 02:04:29;;;;;;;110.90;37.90;;;;;;;7.97;69.11;100724.95;107994;1254;71557;-68
2024/02/18 02:06:58;;;;;;;98.30;36.00;;;;;;;7.94;69.06;100723.25;108063;1254;69913;-67
2024/02/18 02:09:26;;;;;;;98.10;34.10;;;;;;;7.92;69.26;100727.84;107721;1254;72704;-68
2024/02/18 02:11:53;;;;;;;98.10;35.60;;;;;;;8.00;69.04;100729.80;107936;1254;59647;-68
2024/02/18 02:14:21;;;;;;;99.40;34.70;;;;;;;7.99;69.27;100730.70;108016;1254;59583;-67
2024/02/18 02:16:49;;;;;;;101.10;35.60;;;;;;;8.03;69.25;100728.18;107848;1256;73001;-67
2024/02/18 02:19:16;;;;;;;106.30;38.10;;;;;;;8.10;69.00;100730.33;107963;1256;69988;-67
2024/02/18 02:21:44;;;;;;;99.70;34.20;;;;;;;8.11;69.06;100731.52;107907;1257;71465;-67
2024/02/18 02:24:11;;;;;;;110.70;36.60;;;;;;;8.24;68.79;100739.17;107931;1256;59589;-66
2024/02/18 02:26:41;;;;;;;106.90;35.90;;;;;;;8.24;68.87;100737.27;107942;1256;60056;-67
2024/02/18 02:29:12;;;;;;;106.90;37.20;;;;;;;8.20;69.19;100731.39;107947;1257;71912;-64
2024/02/18 02:31:41;;;;;;;114.40;36.90;;;;;;;8.24;69.01;100735.88;107960;1257;69983;-66
2024/02/18 02:34:08;;;;;;;99.50;34.80;;;;;;;8.12;69.39;100731.16;108048;1254;72649;-66
2024/02/18 02:36:36;;;;;;;108.60;36.80;;;;;;;8.10;69.47;100734.00;108059;1254;59646;-66
2024/02/18 02:39:03;;;;;;;105.60;36.90;;;;;;;8.17;69.41;100731.78;108064;1254;59482;-67
2024/02/18 02:41:31;;;;;;;97.30;34.30;;;;;;;8.18;69.62;100727.58;108097;1254;73034;-67
2024/02/18 02:43:59;;;;;;;104.50;35.40;;;;;;;8.33;69.31;100733.95;108101;1254;69615;-67
2024/02/18 02:46:27;;;;;;;98.30;35.40;;;;;;;8.43;68.94;100730.83;108017;1254;72668;-67
2024/02/18 02:48:55;;;;;;;96.70;34.60;;;;;;;8.50;68.84;100733.85;107997;1254;60848;-67
2024/02/18 02:51:23;;;;;;;114.70;35.90;;;;;;;8.56;68.74;100738.11;108076;1254;60057;-67
2024/02/18 02:53:50;;;;;;;100.80;34.20;;;;;;;8.60;68.84;100740.47;108117;1254;73014;-68
2024/02/18 02:56:18;;;;;;;101.70;34.70;;;;;;;8.64;68.64;100738.48;108031;1254;70285;-67
2024/02/18 02:58:45;;;;;;;109.40;36.40;;;;;;;8.67;68.83;100740.86;107989;1257;72732;-67
2024/02/18 03:01:13;;;;;;;98.10;33.30;;;;;;;8.70;68.80;100742.39;108034;1254;60853;-67
2024/02/18 03:03:41;;;;;;;111.40;37.30;;;;;;;8.81;68.60;100743.91;108034;1260;59579;-67
2024/02/18 03:06:09;;;;;;;99.70;34.80;;;;;;;8.80;68.72;100744.48;108046;1254;71926;-67
2024/02/18 03:08:37;;;;;;;103.10;34.90;;;;;;;8.86;68.53;100743.13;108046;1254;68220;-67
2024/02/18 03:11:06;;;;;;;97.90;33.90;;;;;;;8.85;68.70;100746.48;108065;1254;72662;-67
2024/02/18 03:13:33;;;;;;;101.30;34.60;;;;;;;8.97;68.57;100749.91;107989;1256;59686;-67
2024/02/18 03:16:01;;;;;;;110.10;36.60;;;;;;;9.15;67.96;100744.27;107920;1254;59985;-67
2024/02/18 03:18:28;;;;;;;90.80;33.00;;;;;;;9.26;67.73;100747.37;108074;1254;72956;-67
2024/02/18 03:20:57;;;;;;;88.60;31.80;;;;;;;9.22;67.96;100749.73;108014;1254;68698;-67
2024/02/18 03:23:27;;;;;;;91.40;33.10;;;;;;;9.23;68.10;100752.51;108068;1254;72637;-68
2024/02/18 03:25:55;;;;;;;91.10;32.50;;;;;;;9.25;68.14;100753.16;108053;1254;59569;-67
2024/02/18 03:28:22;;;;;;;96.40;33.20;;;;;;;9.26;68.27;100758.23;108060;1254;60021;-66
2024/02/18 03:30:51;;;;;;;89.40;31.20;;;;;;;9.29;68.28;100760.96;108067;1254;71847;-66
2024/02/18 03:33:18;;;;;;;84.90;30.00;;;;;;;9.33;68.29;100759.31;108016;1257;69541;-67
2024/02/18 03:35:46;;;;;;;92.80;29.50;;;;;;;9.41;68.37;100758.26;107947;1255;70951;-67
2024/02/18 03:38:14;;;;;;;88.30;29.70;;;;;;;9.54;68.11;100764.28;107937;1256;60877;-67
2024/02/18 03:40:41;;;;;;;90.40;29.80;;;;;;;9.66;67.82;100763.29;107929;1257;60007;-67
2024/02/18 03:43:09;;;;;;;84.40;28.80;;;;;;;9.72;67.62;100765.08;107937;1257;73155;-67
2024/02/18 03:45:36;;;;;;;75.50;28.30;;;;;;;9.71;67.69;100767.21;107997;1256;69027;-68
2024/02/18 03:48:05;;;;;;;91.30;31.60;;;;;;;9.67;67.97;100769.42;107939;1256;72735;-66
2024/02/18 03:50:32;;;;;;;87.10;30.10;;;;;;;9.67;68.08;100772.04;107943;1258;60297;-67
2024/02/18 03:53:00;;;;;;;94.40;30.50;;;;;;;9.72;67.96;100775.09;107976;1256;60281;-67
2024/02/18 03:55:29;;;;;;;83.00;29.50;;;;;;;9.74;67.97;100776.45;107804;1256;73820;-67
2024/02/18 03:57:57;;;;;;;80.20;30.50;;;;;;;9.78;67.91;100781.96;107968;1256;69962;-68
2024/02/18 04:00:25;;;;;;;84.10;30.70;;;;;;;9.81;67.79;100779.95;107897;1257;71830;-67
2024/02/18 04:02:52;;;;;;;86.20;31.20;;;;;;;9.83;67.91;100781.67;107919;1257;60443;-67
2024/02/18 04:05:19;;;;;;;68.30;27.00;;;;;;;9.72;68.27;100788.77;107901;1256;59671;-66
2024/02/18 04:07:47;;;;;;;71.20;27.30;;;;;;;9.78;68.19;100785.11;108026;1257;73818;-66
2024/02/18 04:10:14;;;;;;;64.10;26.20;;;;;;;9.94;67.79;100782.98;108131;1253;70382;-66
2024/02/18 04:12:46;;;;;;;74.00;27.60;;;;;;;10.04;67.60;100785.38;108127;1254;72826;-67
2024/02/18 04:15:14;;;;;;;78.20;27.50;;;;;;;10.16;67.30;100785.77;108097;1253;60480;-68
2024/02/18 04:17:42;;;;;;;74.00;28.90;;;;;;;10.04;67.73;100787.83;108046;1253;60520;-68
2024/02/18 04:20:10;;;;;;;61.50;24.90;;;;;;;10.01;68.07;100784.02;108107;1253;73851;-68
2024/02/18 04:22:38;;;;;;;64.60;25.90;;;;;;;9.87;68.67;100781.23;108076;1253;69049;-67
2024/02/18 04:25:06;;;;;;;64.80;26.20;;;;;;;9.87;68.88;100779.98;108162;1253;71415;-67
2024/02/18 04:27:33;;;;;;;57.00;22.90;;;;;;;9.96;68.75;100789.42;108156;1257;60462;-67
2024/02/18 04:30:01;;;;;;;60.50;25.40;;;;;;;9.96;68.78;100789.61;108118;1254;59284;-67
2024/02/18 04:32:28;;;;;;;52.60;22.50;;;;;;;9.96;68.93;100790.13;108266;1253;72680;-66
2024/02/18 04:34:56;;;;;;;58.10;23.30;;;;;;;9.97;68.89;100791.33;108246;1254;70260;-65
2024/02/18 04:37:23;;;;;;;52.40;21.80;;;;;;;9.98;68.85;100792.72;108178;1256;72366;-67
2024/02/18 04:39:52;;;;;;;55.80;22.20;;;;;;;10.03;68.72;100799.24;108189;1253;60797;-67
2024/02/18 04:42:19;;;;;;;48.00;20.80;;;;;;;10.15;68.50;100801.23;108201;1253;60155;-66
2024/02/18 04:44:46;;;;;;;55.70;22.30;;;;;;;10.15;68.39;100804.05;108212;1254;71363;-65
2024/02/18 04:47:14;;;;;;;52.80;22.50;;;;;;;10.17;68.37;100809.60;108207;1254;69155;-66
2024/02/18 04:49:42;;;;;;;47.80;21.00;;;;;;;10.28;68.18;100809.54;108257;1254;72624;-66
2024/02/18 04:52:09;;;;;;;51.80;21.50;;;;;;;10.29;67.91;100810.90;108265;1253;60890;-65
2024/02/18 04:54:37;;;;;;;45.90;21.20;;;;;;;10.20;68.10;100816.92;108272;1252;60542;-66
2024/02/18 04:57:07;;;;;;;48.70;21.50;;;;;;;10.07;68.54;100817.23;108228;1254;73822;-63
2024/02/18 04:59:35;;;;;;;44.40;20.50;;;;;;;10.14;68.38;100820.40;108332;1253;69234;-67
2024/02/18 05:02:02;;;;;;;45.80;19.60;;;;;;;10.21;68.17;100820.94;108207;1253;72653;-66
2024/02/18 05:04:31;;;;;;;47.40;20.10;;;;;;;10.25;67.84;100822.93;108165;1254;60421;-66
2024/02/18 05:06:59;;;;;;;50.50;22.10;;;;;;;10.18;68.04;100823.80;108260;1253;60495;-66
2024/02/18 05:09:27;;;;;;;40.40;19.10;;;;;;;10.19;67.92;100826.58;108172;1254;72653;-70
2024/02/18 05:11:55;;;;;;;45.10;20.20;;;;;;;10.28;67.58;100830.42;108236;1253;69438;-66
2024/02/18 05:14:22;;;;;;;38.30;18.20;;;;;;;10.36;67.32;100834.83;108198;1254;71489;-66
2024/02/18 05:16:50;;;;;;;42.50;18.70;;;;;;;10.37;67.17;100838.64;108135;1254;60861;-67
2024/02/18 05:19:17;;;;;;;46.00;20.40;;;;;;;10.38;67.11;100838.27;108190;1256;60074;-67
2024/02/18 05:21:45;;;;;;;46.40;20.70;;;;;;;10.49;66.53;100837.30;108155;1254;72789;-67
2024/02/18 05:24:16;;;;;;;47.10;21.40;;;;;;;10.55;66.36;100841.55;108226;1253;69739;-66
2024/02/18 05:26:44;;;;;;;48.00;20.20;;;;;;;10.61;66.23;100840.50;108182;1253;72472;-66
2024/02/18 05:29:11;;;;;;;44.20;19.10;;;;;;;10.72;65.88;100841.80;108196;1254;61071;-67
2024/02/18 05:31:39;;;;;;;52.40;20.80;;;;;;;10.65;66.05;100843.54;108262;1254;60039;-67
2024/02/18 05:34:07;;;;;;;40.90;18.70;;;;;;;10.67;65.98;100848.26;108228;1254;72503;-68
2024/02/18 05:36:35;;;;;;;50.40;21.20;;;;;;;10.69;65.93;100848.73;108266;1251;68764;-67
2024/02/18 05:39:03;;;;;;;38.10;18.00;;;;;;;10.66;65.92;100851.77;108207;1251;70057;-67
2024/02/18 05:41:30;;;;;;;46.70;21.10;;;;;;;10.60;66.20;100852.64;108298;1254;60411;-68
2024/02/18 05:43:57;;;;;;;47.40;20.60;;;;;;;10.63;66.27;100854.48;108268;1256;60293;-67
2024/02/18 05:46:25;;;;;;;41.10;18.90;;;;;;;10.58;66.20;100855.67;108382;1251;73747;-67
2024/02/18 05:48:52;;;;;;;39.50;18.50;;;;;;;10.54;66.51;100857.70;108357;1256;68786;-67
2024/02/18 05:51:20;;;;;;;43.00;19.90;;;;;;;10.60;66.37;100864.77;108258;1252;71389;-65
2024/02/18 05:53:48;;;;;;;40.10;17.90;;;;;;;10.53;66.47;100865.98;108337;1251;60627;-67
2024/02/18 05:56:15;;;;;;;40.00;18.70;;;;;;;10.62;66.30;100869.63;108284;1254;60316;-67
2024/02/18 05:58:43;;;;;;;35.30;17.00;;;;;;;10.64;66.09;100872.02;108301;1251;71612;-66
2024/02/18 06:01:10;;;;;;;31.80;15.90;;;;;;;10.65;66.18;100874.64;108322;1251;70280;-66
2024/02/18 06:03:38;;;;;;;38.40;16.20;;;;;;;10.69;66.01;100876.29;108195;1251;72494;-67
2024/02/18 06:06:05;;;;;;;31.20;15.00;;;;;;;10.72;65.82;100885.70;108313;1251;60431;-66
2024/02/18 06:08:33;;;;;;;31.60;14.50;;;;;;;10.73;65.82;100888.65;108280;1251;59142;-65
2024/02/18 06:11:00;;;;;;;30.20;14.20;;;;;;;10.71;65.83;100889.95;108303;1256;74215;-65
2024/02/18 06:13:28;;;;;;;28.60;13.70;;;;;;;10.76;65.68;100895.98;108296;1251;70194;-67
2024/02/18 06:15:55;;;;;;;25.30;12.20;;;;;;;10.81;65.36;100900.94;108260;1254;71230;-66
2024/02/18 06:18:23;;;;;;;27.00;12.60;;;;;;;10.76;65.33;100902.65;108265;1251;60513;-65
2024/02/18 06:20:51;;;;;;;25.70;12.10;;;;;;;10.65;65.48;100905.70;108326;1256;61365;-67
2024/02/18 06:23:19;;;;;;;25.40;11.80;;;;;;;10.61;65.73;100908.63;108299;1251;73861;-66
2024/02/18 06:25:46;;;;;;;23.40;11.70;;;;;;;10.69;65.47;100913.88;108361;1251;67993;-66
2024/02/18 06:28:14;;;;;;;20.90;10.10;;;;;;;10.72;65.30;100915.02;108249;1251;74664;-67
2024/02/18 06:30:41;;;;;;;17.10;9.00;;;;;;;10.68;65.36;100917.41;108237;1251;60380;-67
2024/02/18 06:33:13;;;;;;;18.90;9.70;;;;;;;10.62;65.47;100919.13;108203;1254;60313;-67
2024/02/18 06:35:42;;;;;;;18.80;8.90;;;;;;;10.68;65.26;100924.25;108177;1253;73776;-66
2024/02/18 06:38:11;;;;;;;16.70;8.70;;;;;;;10.86;64.54;100922.77;108206;1256;69318;-68
2024/02/18 06:40:39;;;;;;;16.20;8.20;;;;;;;10.82;64.34;100924.26;108123;1254;71178;-68
2024/02/18 06:43:06;;;;;;;14.80;8.20;;;;;;;10.81;64.27;100925.36;108180;1256;60367;-67
2024/02/18 06:45:34;;;;;;;17.50;9.10;;;;;;;10.89;63.98;100928.84;108185;1254;60534;-68
2024/02/18 06:48:02;;;;;;;14.40;7.70;;;;;;;10.92;63.73;100936.33;108165;1254;72633;-67
2024/02/18 06:50:29;;;;;;;12.40;7.40;;;;;;;10.94;63.54;100936.98;108189;1256;69976;-68
2024/02/18 06:52:57;;;;;;;11.50;7.00;;;;;;;10.92;63.62;100935.95;108189;1254;72685;-66
2024/02/18 06:55:24;;;;;;;11.90;6.90;;;;;;;10.93;63.75;100936.28;108186;1251;60500;-67
2024/02/18 06:57:51;;;;;;;12.70;7.30;;;;;;;10.92;63.98;100937.36;108130;1252;60251;-67
2024/02/18 07:00:19;;;;;;;9.40;5.90;;;;;;;10.98;63.90;100941.08;108201;1252;73855;-67
2024/02/18 07:02:46;;;;;;;9.90;6.10;;;;;;;10.98;63.76;100941.42;108189;1254;69002;-67
2024/02/18 07:05:14;;;;;;;12.10;6.90;;;;;;;11.03;63.47;100942.17;108181;1254;73073;-67
2024/02/18 07:07:42;;;;;;;9.10;5.30;;;;;;;11.08;63.73;100942.74;108151;1254;59919;-67
2024/02/18 07:10:09;;;;;;;10.60;6.80;;;;;;;11.25;63.20;100942.11;108160;1251;60198;-67
2024/02/18 07:12:39;;;;;;;12.30;6.30;;;;;;;11.25;63.15;100940.36;108256;1253;73930;-67
2024/02/18 07:15:08;;;;;;;7.90;4.90;;;;;;;11.28;63.00;100942.74;108238;1253;69417;-67
2024/02/18 07:17:36;;;;;;;9.50;4.80;;;;;;;11.44;62.63;100947.77;108131;1254;72654;-67
2024/02/18 07:20:04;;;;;;;6.70;4.30;;;;;;;11.50;62.20;100947.41;108142;1254;60443;-67
2024/02/18 07:22:31;;;;;;;7.60;4.70;;;;;;;11.53;61.70;100951.03;108181;1257;63042;-67
2024/02/18 07:24:59;;;;;;;10.00;5.50;;;;;;;11.54;61.64;100956.09;108225;1253;73123;-67
2024/02/18 07:27:27;;;;;;;8.00;4.30;;;;;;;11.55;61.53;100956.42;108239;1254;69515;-67
2024/02/18 07:29:54;;;;;;;8.10;5.50;;;;;;;11.63;61.37;100959.19;108166;1253;71254;-67
2024/02/18 07:32:22;;;;;;;6.60;4.00;;;;;;;11.66;61.13;100960.71;108291;1252;60482;-68
2024/02/18 07:34:50;;;;;;;5.80;3.90;;;;;;;11.62;60.82;100962.38;108300;1252;60821;-67
2024/02/18 07:37:18;;;;;;;5.70;3.90;;;;;;;11.59;60.44;100966.54;108203;1253;72576;-68
2024/02/18 07:39:46;;;;;;;5.80;4.10;;;;;;;11.65;60.17;100967.05;108192;1254;68666;-67
2024/02/18 07:42:13;;;;;;;6.30;4.10;;;;;;;11.56;60.24;100968.00;108211;1253;72731;-67
2024/02/18 07:44:44;;;;;;;4.70;3.50;;;;;;;11.44;59.99;100971.85;108176;1254;60338;-67
2024/02/18 07:47:12;;;;;;;6.00;3.30;;;;;;;11.40;59.75;100980.56;108197;1254;61038;-67
2024/02/18 07:49:39;;;;;;;7.30;3.90;;;;;;;11.31;60.05;100975.37;108176;1253;72617;-67
2024/02/18 07:52:08;;;;;;;2.80;2.40;;;;;;;11.22;60.19;100981.59;108174;1254;69037;-67
2024/02/18 07:54:35;;;;;;;2.60;2.10;;;;;;;11.15;59.98;100985.63;108238;1253;71199;-67
2024/02/18 07:57:03;;;;;;;4.90;3.00;;;;;;;10.98;60.24;100992.73;108165;1254;60523;-68
2024/02/18 07:59:31;;;;;;;6.60;2.50;;;;;;;10.91;60.43;100999.23;108175;1254;60860;-67
2024/02/18 08:02:01;;;;;;;3.70;3.10;;;;;;;10.87;60.59;101001.60;108153;1254;73812;-67
2024/02/18 08:04:29;;;;;;;4.30;3.00;;;;;;;10.80;60.55;101007.93;108096;1254;68671;-67
2024/02/18 08:06:56;;;;;;;3.40;2.30;;;;;;;10.78;60.44;101007.28;108189;1254;72876;-67
2024/02/18 08:09:24;;;;;;;3.20;2.30;;;;;;;10.62;60.78;101011.34;108106;1254;60517;-65
2024/02/18 08:11:52;;;;;;;3.00;2.00;;;;;;;10.48;60.89;101016.23;108225;1253;61251;-68
2024/02/18 08:14:19;;;;;;;2.40;1.80;;;;;;;10.36;61.06;101021.40;108264;1254;73838;-67
2024/02/18 08:16:47;;;;;;;2.20;1.50;;;;;;;10.37;60.97;101033.48;108175;1254;69405;-69
2024/02/18 08:19:14;;;;;;;1.80;1.40;;;;;;;10.34;60.87;101038.81;108152;1254;71365;-67
2024/02/18 08:21:42;;;;;;;1.90;1.30;;;;;;;10.20;60.46;101045.92;108151;1251;61059;-67
2024/02/18 08:24:09;;;;;;;1.60;1.30;;;;;;;10.00;60.26;101052.82;108210;1253;60319;-67
2024/02/18 08:26:37;;;;;;;1.80;1.60;;;;;;;9.86;60.35;101067.48;108104;1257;72004;-67
2024/02/18 08:29:04;;;;;;;3.00;2.20;;;;;;;9.85;60.25;101066.80;108253;1254;69376;-67
2024/02/18 08:31:32;;;;;;;3.10;2.20;;;;;;;9.85;60.45;101075.05;108161;1254;72482;-67
2024/02/18 08:34:01;;;;;;;3.10;2.30;;;;;;;9.71;60.62;101078.80;108167;1254;60293;-67
2024/02/18 08:36:29;;;;;;;2.80;2.30;;;;;;;9.65;60.84;101084.17;108182;1254;60319;-68
2024/02/18 08:38:56;;;;;;;2.30;1.90;;;;;;;9.66;60.31;101086.61;108137;1254;73750;-67
2024/02/18 08:41:25;;;;;;;2.90;2.10;;;;;;;9.56;59.79;101092.25;108160;1254;70597;-68
2024/02/18 08:43:53;;;;;;;2.50;2.10;;;;;;;9.47;60.08;101099.41;108030;1254;72663;-67
2024/02/18 08:46:21;;;;;;;2.30;2.10;;;;;;;9.50;59.85;101104.08;108159;1254;60865;-67
2024/02/18 08:48:50;;;;;;;2.80;2.40;;;;;;;9.46;60.06;101106.24;108122;1254;59109;-67
2024/02/18 08:51:18;;;;;;;2.80;2.30;;;;;;;9.50;59.87;101102.86;108117;1253;73836;-68
2024/02/18 08:53:45;;;;;;;2.80;2.40;;;;;;;9.38;59.84;101105.15;108199;1254;69570;-67
2024/02/18 08:56:13;;;;;;;4.10;2.40;;;;;;;9.33;60.19;101107.34;108187;1254;72138;-67
2024/02/18 08:58:40;;;;;;;3.90;2.70;;;;;;;9.29;60.13;101107.59;108182;1254;60434;-67
2024/02/18 09:01:10;;;;;;;3.20;2.40;;;;;;;9.31;59.97;101110.54;108090;1253;60310;-67
2024/02/18 09:03:38;;;;;;;2.50;2.30;;;;;;;9.29;59.85;101115.82;108170;1253;73883;-67
2024/02/18 09:06:06;;;;;;;3.40;2.50;;;;;;;9.32;59.53;101119.29;108147;1254;69231;-67
2024/02/18 09:08:35;;;;;;;3.40;2.40;;;;;;;9.28;59.43;101122.33;108147;1254;71045;-67
2024/02/18 09:11:03;;;;;;;3.00;2.40;;;;;;;9.22;59.47;101130.65;108092;1253;61525;-67
2024/02/18 09:13:31;;;;;;;3.70;3.20;;;;;;;9.12;59.54;101129.58;108079;1254;60334;-68
2024/02/18 09:15:58;;;;;;;2.10;1.90;;;;;;;9.08;59.38;101132.61;107943;1255;76166;-67
2024/02/18 09:18:26;;;;;;;2.10;1.90;;;;;;;9.03;58.62;101140.38;108111;1253;69932;-67
2024/02/18 09:20:55;;;;;;;3.70;3.30;;;;;;;9.20;58.15;101146.62;108134;1254;71794;-67
2024/02/18 09:23:23;;;;;;;2.40;2.00;;;;;;;9.12;57.74;101146.75;108055;1258;60743;-68
2024/02/18 09:25:51;;;;;;;2.10;1.80;;;;;;;9.02;57.44;101147.58;108102;1254;60283;-67
2024/02/18 09:28:18;;;;;;;1.60;1.50;;;;;;;9.07;57.24;101155.58;108193;1253;72797;-66
2024/02/18 09:30:46;;;;;;;4.60;1.80;;;;;;;9.14;56.91;101160.73;108188;1253;71102;-67
2024/02/18 09:33:14;;;;;;;2.50;2.20;;;;;;;9.13;56.85;101158.48;108118;1254;71423;-67
2024/02/18 09:35:41;;;;;;;1.50;1.40;;;;;;;9.19;56.46;101162.23;108192;1251;60797;-69
2024/02/18 09:38:09;;;;;;;2.20;1.60;;;;;;;9.26;55.57;101161.95;108289;1254;60348;-67
2024/02/18 09:40:37;;;;;;;2.30;1.60;;;;;;;9.39;55.63;101165.44;108190;1257;73912;-67
2024/02/18 09:43:04;;;;;;;1.60;1.50;;;;;;;9.45;55.81;101158.31;108160;1254;70466;-67
2024/02/18 09:45:32;;;;;;;1.80;1.50;;;;;;;9.56;55.46;101161.13;108205;1254;71650;-64
2024/02/18 09:48:01;;;;;;;1.50;1.40;;;;;;;9.65;55.48;101160.46;108177;1254;60845;-68
2024/02/18 09:50:31;;;;;;;1.50;1.40;;;;;;;9.79;54.58;101158.11;108333;1252;60331;-67
2024/02/18 09:53:00;;;;;;;1.60;1.50;;;;;;;9.88;54.15;101159.70;108154;1253;73818;-67
2024/02/18 09:55:27;;;;;;;1.20;1.10;;;;;;;10.05;53.53;101161.16;108159;1254;68740;-67
2024/02/18 09:57:55;;;;;;;1.50;1.40;;;;;;;10.23;52.81;101165.56;108212;1254;72432;-67
2024/02/18 10:00:22;;;;;;;1.10;1.00;;;;;;;10.30;52.38;101166.33;108082;1256;61293;-68
2024/02/18 10:02:51;;;;;;;1.20;1.10;;;;;;;10.16;51.32;101167.45;108177;1254;60334;-66
2024/02/18 10:05:19;;;;;;;1.00;0.90;;;;;;;10.20;50.05;101167.73;108238;1254;73765;-68
2024/02/18 10:07:58;;;;;;;0.80;0.80;;;;;;;10.21;49.52;101172.27;108190;1254;70291;-67
2024/02/18 10:10:26;;;;;;;1.70;1.20;;;;;;;10.39;48.96;101173.00;108252;1255;71352;-69
2024/02/18 10:12:53;;;;;;;1.30;1.00;;;;;;;10.47;47.75;101173.38;108167;1254;60803;-68
2024/02/18 10:15:21;;;;;;;1.10;1.00;;;;;;;10.43;47.81;101177.15;108287;1251;60351;-67
2024/02/18 10:17:53;;;;;;;1.30;1.10;;;;;;;10.39;47.59;101180.02;108177;1254;73965;-68
2024/02/18 10:20:20;;;;;;;1.30;1.20;;;;;;;10.49;47.66;101178.44;108119;1254;69194;-68
2024/02/18 10:22:48;;;;;;;1.30;1.00;;;;;;;10.36;47.75;101181.32;108172;1254;75363;-68
2024/02/18 10:25:16;;;;;;;1.30;1.20;;;;;;;10.26;48.12;101184.11;108201;1254;61503;-67
2024/02/18 10:27:43;;;;;;;1.50;1.30;;;;;;;10.35;48.14;101184.84;108123;1252;60474;-67
2024/02/18 10:30:11;;;;;;;1.40;1.30;;;;;;;10.60;48.42;101181.56;108160;1253;72700;-68
2024/02/18 10:32:39;;;;;;;1.30;1.00;;;;;;;10.73;47.15;101183.91;108185;1254;70152;-67
2024/02/18 10:35:07;;;;;;;1.40;1.20;;;;;;;10.81;46.70;101187.98;108111;1254;71339;-67
2024/02/18 10:37:38;;;;;;;1.80;1.40;;;;;;;10.92;46.14;101194.58;108106;1254;60883;-66
2024/02/18 10:40:25;;;;;;;1.20;1.10;;;;;;;10.89;45.51;101194.28;108164;1252;60185;-67
2024/02/18 10:42:52;;;;;;;2.30;1.70;;;;;;;10.75;45.40;101194.95;108194;1254;72737;-68
2024/02/18 10:45:22;;;;;;;1.50;1.20;;;;;;;10.59;45.61;101202.30;108147;1254;71041;-69
2024/02/18 10:47:52;;;;;;;1.40;1.30;;;;;;;10.43;45.58;101209.63;108268;1254;72627;-70
2024/02/18 10:50:27;;;;;;;1.90;1.40;;;;;;;10.25;45.49;101205.02;108311;1256;60295;-68
2024/02/18 10:52:59;;;;;;;1.40;1.30;;;;;;;10.04;45.09;101203.29;108214;1256;60003;-67
2024/02/18 10:55:49;;;;;;;1.40;1.30;;;;;;;10.05;45.67;101203.45;108189;1254;74087;-68
2024/02/18 10:58:43;;;;;;;1.60;1.30;;;;;;;10.01;45.52;101202.63;108195;1254;70190;-68
2024/02/18 11:01:12;;;;;;;1.30;1.10;;;;;;;9.87;45.55;101199.02;108224;1254;72901;-68
2024/02/18 11:03:47;;;;;;;2.20;1.40;;;;;;;9.80;46.18;101204.58;108196;1254;62952;-67
2024/02/18 11:06:16;;;;;;;4.40;1.40;;;;;;;9.71;45.89;101200.86;108242;1252;59563;-67
2024/02/18 11:08:43;;;;;;;1.60;1.30;;;;;;;9.65;46.00;101203.41;108227;1253;73843;-66
2024/02/18 11:11:14;;;;;;;1.70;1.60;;;;;;;9.79;45.96;101199.86;108275;1254;70299;-68
2024/02/18 11:13:41;;;;;;;2.10;1.80;;;;;;;9.89;45.76;101208.47;108228;1254;71421;-68